Historique des mesures à Cassis (13260), France
Quotidien Résumé Mars 31, 2017 Unités:  US    Métrique   Métrique/US
« Précédent (Jour)
Suivant (Jour) »
Quotidien Hebdomadaire Mensuel Annuel Période au choix
  Maximum: Minimum: Moyenne:
Température: 32 °F 52.2 °F 57.7 °F
Point de rosée: 32 °F 41.4 °F 48.4 °F
Humidité: Humidity % 59 % 67 %
Vitesse du vent: WindSpeedKMH mph 0.0 mph 1.9 mph
Rafales: WindSpeedGustKMH mph - -
Vent:- - SSE
Pression: 0 in 30 in -
Précipitations: 0 in    
Historical Graphs
 
 
Mesures pour : Mars 31, 2017
Heure Temperature Point de rosée Pression Vent Vitesse du vent Rafales Humidité Pluie (par heure) Conditions
32 °F 32 °F 0 in Calm     Humidity % 0 in SoftwareType W/m2
00:11 56.3 °F 42.3 °F 30.2 in North 1.4 mph 1.4 mph 59 % 0 in open2300-1.11 W/m2
02:11 54.5 °F 41.4 °F 30.2 in North 1.4 mph 3.5 mph 61 % 0 in open2300-1.11 W/m2
03:11 54 °F 42.1 °F 30.2 in Calm   5.8 mph 64 % 0 in open2300-1.11 W/m2
04:11 52.9 °F 42.3 °F 30.2 in Calm     67 % 0 in open2300-1.11 W/m2
05:11 54 °F 45.9 °F 30.1 in Calm   1.4 mph 74 % 0 in open2300-1.11 W/m2
06:11 52.9 °F 44.4 °F 30.1 in NW 3.5 mph 3.5 mph 73 % 0 in open2300-1.11 W/m2
07:11 52.2 °F 43.9 °F 30.1 in NNE 1.4 mph 1.4 mph 73 % 0 in open2300-1.11 W/m2
08:11 52.7 °F 44.2 °F 30.1 in NNE 2.1 mph 2.1 mph 73 % 0 in open2300-1.11 W/m2
09:11 55.9 °F 46.8 °F 30.1 in Calm     71 % 0 in open2300-1.11 W/m2
10:11 58.6 °F 48 °F 30.2 in SSE 1.1 mph 5.8 mph 68 % 0 in open2300-1.11 W/m2
11:11 60.3 °F 50.9 °F 30.2 in South 5.0 mph 5.8 mph 71 % 0 in open2300-1.11 W/m2
12:11 62.8 °F 53.6 °F 30.2 in South 2.6 mph 6.4 mph 72 % 0 in open2300-1.11 W/m2
13:11 64.9 °F 55 °F 30.1 in SW 2.6 mph 4.7 mph 70 % 0 in open2300-1.11 W/m2
14:11 66 °F 55 °F 30.1 in West 3.5 mph 3.5 mph 68 % 0 in open2300-1.11 W/m2
15:11 65.5 °F 55 °F 30.1 in Calm   3.2 mph 69 % 0 in open2300-1.11 W/m2
16:11 65.3 °F 55.2 °F 30.1 in WSW 2.1 mph 7.6 mph 70 % 0 in open2300-1.11 W/m2
17:11 64 °F 54.5 °F 30.1 in SSW 15.1 mph 15.1 mph 71 % 0 in open2300-1.11 W/m2
18:11 63.7 °F 54.1 °F 30 in West 3.2 mph 3.2 mph 71 % 0 in open2300-1.11 W/m2
19:11 61.5 °F 52.2 °F 30 in Calm   3.5 mph 71 % 0 in open2300-1.11 W/m2
20:11 60.1 °F 51.4 °F 30 in Calm   3.5 mph 73 % 0 in open2300-1.11 W/m2
21:11 58.8 °F 50.9 °F 30 in Calm   2.1 mph 75 % 0 in open2300-1.11 W/m2
22:11 58.3 °F 50.4 °F 30 in Calm     75 % 0 in open2300-1.11 W/m2
23:11 58.1 °F 50.5 °F 30 in SE 1.4 mph 4.0 mph 76 % 0 in open2300-1.11 W/m2
Observations météo à CASSIS
WU-History script by Weather Underground - 1 mb